sensor_id;sensor_type;location;lat;lon;timestamp;P1;durP1;ratioP1;P2;durP2;ratioP2
30892;SDS011;17595;50.884;4.346;2022-11-12T00:02:12;10.43;;;8.05;;
30892;SDS011;17595;50.884;4.346;2022-11-12T00:04:37;11.52;;;8.02;;
30892;SDS011;17595;50.884;4.346;2022-11-12T00:07:03;10.27;;;7.78;;
30892;SDS011;17595;50.884;4.346;2022-11-12T00:09:29;12.13;;;8.63;;
30892;SDS011;17595;50.884;4.346;2022-11-12T00:11:54;9.32;;;7.93;;
30892;SDS011;17595;50.884;4.346;2022-11-12T00:14:20;10.80;;;8.38;;
30892;SDS011;17595;50.884;4.346;2022-11-12T00:16:45;9.25;;;7.85;;
30892;SDS011;17595;50.884;4.346;2022-11-12T00:19:11;9.23;;;8.13;;
30892;SDS011;17595;50.884;4.346;2022-11-12T00:21:36;12.80;;;8.18;;
30892;SDS011;17595;50.884;4.346;2022-11-12T00:24:02;11.30;;;7.82;;
30892;SDS011;17595;50.884;4.346;2022-11-12T00:26:28;9.85;;;7.55;;
30892;SDS011;17595;50.884;4.346;2022-11-12T00:28:54;9.95;;;7.65;;
30892;SDS011;17595;50.884;4.346;2022-11-12T00:31:19;10.50;;;8.10;;
30892;SDS011;17595;50.884;4.346;2022-11-12T00:33:45;11.60;;;7.65;;
30892;SDS011;17595;50.884;4.346;2022-11-12T00:36:11;10.95;;;8.25;;
30892;SDS011;17595;50.884;4.346;2022-11-12T00:38:36;9.50;;;8.50;;
30892;SDS011;17595;50.884;4.346;2022-11-12T00:41:02;10.52;;;7.95;;
30892;SDS011;17595;50.884;4.346;2022-11-12T00:43:28;10.15;;;8.40;;
30892;SDS011;17595;50.884;4.346;2022-11-12T00:45:53;10.98;;;8.43;;
30892;SDS011;17595;50.884;4.346;2022-11-12T00:48:19;13.93;;;8.50;;
30892;SDS011;17595;50.884;4.346;2022-11-12T00:50:44;12.65;;;9.18;;
30892;SDS011;17595;50.884;4.346;2022-11-12T00:53:10;11.52;;;7.95;;
30892;SDS011;17595;50.884;4.346;2022-11-12T00:55:36;10.75;;;8.20;;
30892;SDS011;17595;50.884;4.346;2022-11-12T00:58:01;10.88;;;8.57;;
30892;SDS011;17595;50.884;4.346;2022-11-12T01:00:27;11.80;;;8.15;;
30892;SDS011;17595;50.884;4.346;2022-11-12T01:02:53;14.02;;;7.82;;
30892;SDS011;17595;50.884;4.346;2022-11-12T01:05:19;11.95;;;7.80;;
30892;SDS011;17595;50.884;4.346;2022-11-12T01:07:45;13.18;;;8.43;;
30892;SDS011;17595;50.884;4.346;2022-11-12T01:10:11;12.20;;;8.13;;
30892;SDS011;17595;50.884;4.346;2022-11-12T01:12:38;9.50;;;7.20;;
30892;SDS011;17595;50.884;4.346;2022-11-12T01:15:04;11.40;;;8.02;;
30892;SDS011;17595;50.884;4.346;2022-11-12T01:17:31;10.85;;;7.63;;
30892;SDS011;17595;50.884;4.346;2022-11-12T01:19:56;11.32;;;8.30;;
30892;SDS011;17595;50.884;4.346;2022-11-12T01:22:22;9.05;;;7.63;;
30892;SDS011;17595;50.884;4.346;2022-11-12T01:24:48;11.48;;;8.73;;
30892;SDS011;17595;50.884;4.346;2022-11-12T01:27:13;10.95;;;8.05;;
30892;SDS011;17595;50.884;4.346;2022-11-12T01:29:39;10.73;;;8.00;;
30892;SDS011;17595;50.884;4.346;2022-11-12T01:32:05;11.15;;;8.15;;
30892;SDS011;17595;50.884;4.346;2022-11-12T01:34:31;13.02;;;8.63;;
30892;SDS011;17595;50.884;4.346;2022-11-12T01:36:56;10.85;;;8.27;;
30892;SDS011;17595;50.884;4.346;2022-11-12T01:39:22;11.90;;;8.60;;
30892;SDS011;17595;50.884;4.346;2022-11-12T01:41:48;12.55;;;8.93;;
30892;SDS011;17595;50.884;4.346;2022-11-12T01:46:42;10.30;;;8.75;;
30892;SDS011;17595;50.884;4.346;2022-11-12T01:49:51;12.07;;;8.65;;
30892;SDS011;17595;50.884;4.346;2022-11-12T01:52:29;10.45;;;7.50;;
30892;SDS011;17595;50.884;4.346;2022-11-12T01:55:03;10.25;;;8.00;;
30892;SDS011;17595;50.884;4.346;2022-11-12T01:57:40;10.40;;;7.85;;
30892;SDS011;17595;50.884;4.346;2022-11-12T02:00:10;10.88;;;8.23;;
30892;SDS011;17595;50.884;4.346;2022-11-12T02:02:37;9.63;;;8.15;;
30892;SDS011;17595;50.884;4.346;2022-11-12T02:05:04;10.23;;;8.18;;
30892;SDS011;17595;50.884;4.346;2022-11-12T02:07:32;13.02;;;7.90;;
30892;SDS011;17595;50.884;4.346;2022-11-12T02:10:01;11.18;;;8.05;;
30892;SDS011;17595;50.884;4.346;2022-11-12T02:12:27;9.95;;;7.68;;
30892;SDS011;17595;50.884;4.346;2022-11-12T02:15:12;10.10;;;7.30;;
30892;SDS011;17595;50.884;4.346;2022-11-12T02:17:38;8.32;;;7.30;;
30892;SDS011;17595;50.884;4.346;2022-11-12T02:20:04;8.68;;;7.15;;
30892;SDS011;17595;50.884;4.346;2022-11-12T02:22:34;13.77;;;7.53;;
30892;SDS011;17595;50.884;4.346;2022-11-12T02:24:59;10.25;;;7.82;;
30892;SDS011;17595;50.884;4.346;2022-11-12T02:27:25;8.50;;;7.50;;
30892;SDS011;17595;50.884;4.346;2022-11-12T02:29:51;9.75;;;7.20;;
30892;SDS011;17595;50.884;4.346;2022-11-12T02:32:17;9.35;;;7.63;;
30892;SDS011;17595;50.884;4.346;2022-11-12T02:34:43;8.90;;;7.53;;
30892;SDS011;17595;50.884;4.346;2022-11-12T02:37:09;10.00;;;7.55;;
30892;SDS011;17595;50.884;4.346;2022-11-12T02:39:34;9.60;;;7.82;;
30892;SDS011;17595;50.884;4.346;2022-11-12T02:42:00;9.75;;;7.45;;
30892;SDS011;17595;50.884;4.346;2022-11-12T02:44:26;8.25;;;7.38;;
30892;SDS011;17595;50.884;4.346;2022-11-12T02:46:52;9.30;;;7.65;;
30892;SDS011;17595;50.884;4.346;2022-11-12T02:49:18;8.85;;;6.65;;
30892;SDS011;17595;50.884;4.346;2022-11-12T02:51:43;8.75;;;6.80;;
30892;SDS011;17595;50.884;4.346;2022-11-12T02:54:09;8.98;;;7.35;;
30892;SDS011;17595;50.884;4.346;2022-11-12T02:56:34;11.30;;;7.40;;
30892;SDS011;17595;50.884;4.346;2022-11-12T02:59:00;8.98;;;7.55;;
30892;SDS011;17595;50.884;4.346;2022-11-12T03:01:26;9.38;;;7.30;;
30892;SDS011;17595;50.884;4.346;2022-11-12T03:03:52;11.48;;;7.10;;
30892;SDS011;17595;50.884;4.346;2022-11-12T03:06:17;10.38;;;7.38;;
30892;SDS011;17595;50.884;4.346;2022-11-12T03:08:43;8.45;;;7.10;;
30892;SDS011;17595;50.884;4.346;2022-11-12T03:11:10;10.25;;;7.90;;
30892;SDS011;17595;50.884;4.346;2022-11-12T03:13:37;9.38;;;7.43;;
30892;SDS011;17595;50.884;4.346;2022-11-12T03:16:03;11.05;;;7.78;;
30892;SDS011;17595;50.884;4.346;2022-11-12T03:18:29;9.75;;;6.97;;
30892;SDS011;17595;50.884;4.346;2022-11-12T03:20:55;9.90;;;7.90;;
30892;SDS011;17595;50.884;4.346;2022-11-12T03:23:21;9.68;;;7.05;;
30892;SDS011;17595;50.884;4.346;2022-11-12T03:25:47;10.07;;;7.57;;
30892;SDS011;17595;50.884;4.346;2022-11-12T03:28:13;8.20;;;7.00;;
30892;SDS011;17595;50.884;4.346;2022-11-12T03:30:41;9.88;;;7.13;;
30892;SDS011;17595;50.884;4.346;2022-11-12T03:33:08;8.95;;;7.35;;
30892;SDS011;17595;50.884;4.346;2022-11-12T03:35:35;8.57;;;7.38;;
30892;SDS011;17595;50.884;4.346;2022-11-12T03:38:01;10.10;;;7.10;;
30892;SDS011;17595;50.884;4.346;2022-11-12T03:40:28;8.18;;;6.97;;
30892;SDS011;17595;50.884;4.346;2022-11-12T03:42:54;9.35;;;6.57;;
30892;SDS011;17595;50.884;4.346;2022-11-12T03:45:21;9.80;;;7.00;;
30892;SDS011;17595;50.884;4.346;2022-11-12T03:47:50;9.38;;;7.85;;
30892;SDS011;17595;50.884;4.346;2022-11-12T03:50:18;9.83;;;7.43;;
30892;SDS011;17595;50.884;4.346;2022-11-12T03:52:45;8.05;;;7.03;;
30892;SDS011;17595;50.884;4.346;2022-11-12T03:55:13;8.02;;;6.57;;
30892;SDS011;17595;50.884;4.346;2022-11-12T03:57:41;9.07;;;6.82;;
30892;SDS011;17595;50.884;4.346;2022-11-12T04:00:08;9.80;;;6.47;;
30892;SDS011;17595;50.884;4.346;2022-11-12T04:02:35;9.85;;;6.70;;
30892;SDS011;17595;50.884;4.346;2022-11-12T04:05:02;9.18;;;6.65;;
30892;SDS011;17595;50.884;4.346;2022-11-12T04:07:48;9.65;;;7.10;;
30892;SDS011;17595;50.884;4.346;2022-11-12T04:10:44;8.55;;;7.03;;
30892;SDS011;17595;50.884;4.346;2022-11-12T04:13:10;9.68;;;7.13;;
30892;SDS011;17595;50.884;4.346;2022-11-12T04:18:38;10.18;;;7.18;;
30892;SDS011;17595;50.884;4.346;2022-11-12T04:21:27;10.10;;;7.30;;
30892;SDS011;17595;50.884;4.346;2022-11-12T04:24:14;9.52;;;7.30;;
30892;SDS011;17595;50.884;4.346;2022-11-12T04:26:58;9.02;;;6.97;;
30892;SDS011;17595;50.884;4.346;2022-11-12T04:29:24;7.97;;;6.85;;
30892;SDS011;17595;50.884;4.346;2022-11-12T04:32:08;9.80;;;6.45;;
30892;SDS011;17595;50.884;4.346;2022-11-12T04:34:34;7.72;;;6.88;;
30892;SDS011;17595;50.884;4.346;2022-11-12T04:37:03;8.50;;;6.85;;
30892;SDS011;17595;50.884;4.346;2022-11-12T04:39:30;10.27;;;7.03;;
30892;SDS011;17595;50.884;4.346;2022-11-12T04:41:56;10.00;;;7.35;;
30892;SDS011;17595;50.884;4.346;2022-11-12T04:44:40;7.43;;;6.38;;
30892;SDS011;17595;50.884;4.346;2022-11-12T04:47:35;9.13;;;6.75;;
30892;SDS011;17595;50.884;4.346;2022-11-12T04:50:07;9.60;;;7.35;;
30892;SDS011;17595;50.884;4.346;2022-11-12T04:52:38;7.60;;;6.70;;
30892;SDS011;17595;50.884;4.346;2022-11-12T04:55:04;7.82;;;6.53;;
30892;SDS011;17595;50.884;4.346;2022-11-12T04:57:30;10.15;;;6.25;;
30892;SDS011;17595;50.884;4.346;2022-11-12T04:59:55;7.80;;;6.30;;
30892;SDS011;17595;50.884;4.346;2022-11-12T05:02:21;10.70;;;6.60;;
30892;SDS011;17595;50.884;4.346;2022-11-12T05:04:47;9.05;;;6.50;;
30892;SDS011;17595;50.884;4.346;2022-11-12T05:07:13;9.73;;;6.68;;
30892;SDS011;17595;50.884;4.346;2022-11-12T05:09:39;8.45;;;6.47;;
30892;SDS011;17595;50.884;4.346;2022-11-12T05:12:05;8.05;;;6.45;;
30892;SDS011;17595;50.884;4.346;2022-11-12T05:14:31;7.78;;;6.50;;
30892;SDS011;17595;50.884;4.346;2022-11-12T05:16:57;8.93;;;6.40;;
30892;SDS011;17595;50.884;4.346;2022-11-12T05:19:23;11.45;;;6.72;;
30892;SDS011;17595;50.884;4.346;2022-11-12T05:21:49;8.48;;;7.10;;
30892;SDS011;17595;50.884;4.346;2022-11-12T05:24:39;9.02;;;6.10;;
30892;SDS011;17595;50.884;4.346;2022-11-12T05:27:08;8.15;;;6.80;;
30892;SDS011;17595;50.884;4.346;2022-11-12T05:32:01;8.48;;;6.70;;
30892;SDS011;17595;50.884;4.346;2022-11-12T05:34:27;10.13;;;6.63;;
30892;SDS011;17595;50.884;4.346;2022-11-12T05:36:53;8.60;;;6.65;;
30892;SDS011;17595;50.884;4.346;2022-11-12T05:39:19;9.35;;;7.03;;
30892;SDS011;17595;50.884;4.346;2022-11-12T05:41:45;9.20;;;6.40;;
30892;SDS011;17595;50.884;4.346;2022-11-12T05:44:11;8.48;;;6.40;;
30892;SDS011;17595;50.884;4.346;2022-11-12T05:46:37;7.38;;;6.28;;
30892;SDS011;17595;50.884;4.346;2022-11-12T05:49:02;9.38;;;6.93;;
30892;SDS011;17595;50.884;4.346;2022-11-12T05:51:28;9.05;;;6.63;;
30892;SDS011;17595;50.884;4.346;2022-11-12T05:53:54;8.05;;;7.05;;
30892;SDS011;17595;50.884;4.346;2022-11-12T05:56:20;7.57;;;6.55;;
30892;SDS011;17595;50.884;4.346;2022-11-12T05:58:46;8.18;;;6.32;;
30892;SDS011;17595;50.884;4.346;2022-11-12T06:01:11;9.43;;;6.07;;
30892;SDS011;17595;50.884;4.346;2022-11-12T06:03:37;7.45;;;6.00;;
30892;SDS011;17595;50.884;4.346;2022-11-12T06:06:03;7.25;;;6.03;;
30892;SDS011;17595;50.884;4.346;2022-11-12T06:08:29;8.40;;;6.95;;
30892;SDS011;17595;50.884;4.346;2022-11-12T06:10:54;7.47;;;6.55;;
30892;SDS011;17595;50.884;4.346;2022-11-12T06:13:21;8.65;;;6.78;;
30892;SDS011;17595;50.884;4.346;2022-11-12T06:15:48;8.82;;;6.43;;
30892;SDS011;17595;50.884;4.346;2022-11-12T06:18:14;7.32;;;6.25;;
30892;SDS011;17595;50.884;4.346;2022-11-12T06:20:39;9.57;;;6.82;;
30892;SDS011;17595;50.884;4.346;2022-11-12T06:23:05;8.20;;;6.47;;
30892;SDS011;17595;50.884;4.346;2022-11-12T06:25:30;9.43;;;6.78;;
30892;SDS011;17595;50.884;4.346;2022-11-12T06:27:56;11.52;;;7.03;;
30892;SDS011;17595;50.884;4.346;2022-11-12T06:30:22;7.88;;;6.43;;
30892;SDS011;17595;50.884;4.346;2022-11-12T06:32:48;7.97;;;6.85;;
30892;SDS011;17595;50.884;4.346;2022-11-12T06:35:14;8.57;;;6.25;;
30892;SDS011;17595;50.884;4.346;2022-11-12T06:37:40;9.27;;;6.45;;
30892;SDS011;17595;50.884;4.346;2022-11-12T06:40:06;9.85;;;6.65;;
30892;SDS011;17595;50.884;4.346;2022-11-12T06:42:33;9.27;;;6.63;;
30892;SDS011;17595;50.884;4.346;2022-11-12T06:44:59;7.90;;;6.47;;
30892;SDS011;17595;50.884;4.346;2022-11-12T06:47:25;10.60;;;7.43;;
30892;SDS011;17595;50.884;4.346;2022-11-12T06:49:51;10.50;;;7.13;;
30892;SDS011;17595;50.884;4.346;2022-11-12T06:52:16;11.02;;;8.30;;
30892;SDS011;17595;50.884;4.346;2022-11-12T06:54:42;9.65;;;6.85;;
30892;SDS011;17595;50.884;4.346;2022-11-12T06:57:08;8.75;;;6.78;;
30892;SDS011;17595;50.884;4.346;2022-11-12T06:59:34;10.73;;;7.18;;
30892;SDS011;17595;50.884;4.346;2022-11-12T07:02:00;13.55;;;7.07;;
30892;SDS011;17595;50.884;4.346;2022-11-12T07:04:26;10.15;;;7.22;;
30892;SDS011;17595;50.884;4.346;2022-11-12T07:06:51;8.38;;;6.97;;
30892;SDS011;17595;50.884;4.346;2022-11-12T07:09:17;9.77;;;7.05;;
30892;SDS011;17595;50.884;4.346;2022-11-12T07:11:43;11.68;;;7.10;;
30892;SDS011;17595;50.884;4.346;2022-11-12T07:14:08;11.95;;;7.35;;
30892;SDS011;17595;50.884;4.346;2022-11-12T07:16:34;8.07;;;6.75;;
30892;SDS011;17595;50.884;4.346;2022-11-12T07:19:00;10.40;;;7.13;;
30892;SDS011;17595;50.884;4.346;2022-11-12T07:21:26;13.35;;;7.55;;
30892;SDS011;17595;50.884;4.346;2022-11-12T07:23:51;8.98;;;7.40;;
30892;SDS011;17595;50.884;4.346;2022-11-12T07:26:18;10.25;;;7.05;;
30892;SDS011;17595;50.884;4.346;2022-11-12T07:28:46;11.57;;;7.57;;
30892;SDS011;17595;50.884;4.346;2022-11-12T07:31:14;11.52;;;7.78;;
30892;SDS011;17595;50.884;4.346;2022-11-12T07:33:41;10.32;;;6.80;;
30892;SDS011;17595;50.884;4.346;2022-11-12T07:36:08;8.85;;;6.75;;
30892;SDS011;17595;50.884;4.346;2022-11-12T07:38:36;11.38;;;8.07;;
30892;SDS011;17595;50.884;4.346;2022-11-12T07:41:07;7.97;;;6.93;;
30892;SDS011;17595;50.884;4.346;2022-11-12T07:43:38;8.57;;;6.95;;
30892;SDS011;17595;50.884;4.346;2022-11-12T07:46:06;9.63;;;7.30;;
30892;SDS011;17595;50.884;4.346;2022-11-12T07:48:33;11.88;;;7.10;;
30892;SDS011;17595;50.884;4.346;2022-11-12T07:51:02;10.30;;;7.70;;
30892;SDS011;17595;50.884;4.346;2022-11-12T07:53:35;7.50;;;6.55;;
30892;SDS011;17595;50.884;4.346;2022-11-12T07:56:01;11.98;;;7.88;;
30892;SDS011;17595;50.884;4.346;2022-11-12T07:58:29;8.77;;;7.68;;
30892;SDS011;17595;50.884;4.346;2022-11-12T08:00:56;9.60;;;7.60;;
30892;SDS011;17595;50.884;4.346;2022-11-12T08:03:22;8.82;;;7.40;;
30892;SDS011;17595;50.884;4.346;2022-11-12T08:05:48;11.25;;;8.13;;
30892;SDS011;17595;50.884;4.346;2022-11-12T08:08:14;11.73;;;8.15;;
30892;SDS011;17595;50.884;4.346;2022-11-12T08:10:40;9.18;;;7.38;;
30892;SDS011;17595;50.884;4.346;2022-11-12T08:13:06;8.85;;;7.35;;
30892;SDS011;17595;50.884;4.346;2022-11-12T08:15:31;8.00;;;7.20;;
30892;SDS011;17595;50.884;4.346;2022-11-12T08:17:57;12.10;;;7.55;;
30892;SDS011;17595;50.884;4.346;2022-11-12T08:20:22;9.68;;;7.53;;
30892;SDS011;17595;50.884;4.346;2022-11-12T08:22:48;12.10;;;8.32;;
30892;SDS011;17595;50.884;4.346;2022-11-12T08:25:14;9.38;;;8.15;;
30892;SDS011;17595;50.884;4.346;2022-11-12T08:27:40;11.60;;;8.25;;
30892;SDS011;17595;50.884;4.346;2022-11-12T08:30:06;11.90;;;9.25;;
30892;SDS011;17595;50.884;4.346;2022-11-12T08:32:32;12.38;;;8.82;;
30892;SDS011;17595;50.884;4.346;2022-11-12T08:34:58;11.95;;;8.45;;
30892;SDS011;17595;50.884;4.346;2022-11-12T08:37:23;11.75;;;8.60;;
30892;SDS011;17595;50.884;4.346;2022-11-12T08:39:49;12.20;;;8.32;;
30892;SDS011;17595;50.884;4.346;2022-11-12T08:42:14;11.82;;;8.60;;
30892;SDS011;17595;50.884;4.346;2022-11-12T08:44:40;13.32;;;8.77;;
30892;SDS011;17595;50.884;4.346;2022-11-12T08:47:06;16.70;;;8.88;;
30892;SDS011;17595;50.884;4.346;2022-11-12T08:49:31;16.17;;;9.20;;
30892;SDS011;17595;50.884;4.346;2022-11-12T08:51:57;13.73;;;9.25;;
30892;SDS011;17595;50.884;4.346;2022-11-12T08:54:22;12.38;;;8.95;;
30892;SDS011;17595;50.884;4.346;2022-11-12T08:56:48;12.27;;;8.95;;
30892;SDS011;17595;50.884;4.346;2022-11-12T08:59:14;13.75;;;10.27;;
30892;SDS011;17595;50.884;4.346;2022-11-12T09:01:40;11.85;;;9.38;;
30892;SDS011;17595;50.884;4.346;2022-11-12T09:04:06;12.20;;;9.70;;
30892;SDS011;17595;50.884;4.346;2022-11-12T09:06:31;16.00;;;10.10;;
30892;SDS011;17595;50.884;4.346;2022-11-12T09:08:57;17.08;;;10.38;;
30892;SDS011;17595;50.884;4.346;2022-11-12T09:11:24;12.48;;;10.68;;
30892;SDS011;17595;50.884;4.346;2022-11-12T09:13:53;13.90;;;11.10;;
30892;SDS011;17595;50.884;4.346;2022-11-12T09:16:18;13.38;;;11.43;;
30892;SDS011;17595;50.884;4.346;2022-11-12T09:18:45;13.65;;;10.38;;
30892;SDS011;17595;50.884;4.346;2022-11-12T09:21:11;16.10;;;11.15;;
30892;SDS011;17595;50.884;4.346;2022-11-12T09:23:37;12.90;;;10.40;;
30892;SDS011;17595;50.884;4.346;2022-11-12T09:26:03;14.48;;;10.88;;
30892;SDS011;17595;50.884;4.346;2022-11-12T09:28:29;17.20;;;10.82;;
30892;SDS011;17595;50.884;4.346;2022-11-12T09:30:55;15.75;;;10.82;;
30892;SDS011;17595;50.884;4.346;2022-11-12T09:33:25;14.68;;;11.25;;
30892;SDS011;17595;50.884;4.346;2022-11-12T09:35:53;17.67;;;11.90;;
30892;SDS011;17595;50.884;4.346;2022-11-12T09:38:19;13.65;;;11.43;;
30892;SDS011;17595;50.884;4.346;2022-11-12T09:45:55;22.33;;;11.45;;
30892;SDS011;17595;50.884;4.346;2022-11-12T09:48:26;12.50;;;9.77;;
30892;SDS011;17595;50.884;4.346;2022-11-12T09:51:05;13.68;;;9.15;;
30892;SDS011;17595;50.884;4.346;2022-11-12T09:56:00;12.43;;;9.13;;
30892;SDS011;17595;50.884;4.346;2022-11-12T09:58:30;11.18;;;7.68;;
30892;SDS011;17595;50.884;4.346;2022-11-12T10:01:08;10.85;;;7.50;;
30892;SDS011;17595;50.884;4.346;2022-11-12T10:06:14;11.48;;;6.63;;
30892;SDS011;17595;50.884;4.346;2022-11-12T10:08:55;9.43;;;6.80;;
30892;SDS011;17595;50.884;4.346;2022-11-12T10:18:31;6.80;;;6.10;;
30892;SDS011;17595;50.884;4.346;2022-11-12T10:23:52;10.38;;;6.65;;
30892;SDS011;17595;50.884;4.346;2022-11-12T10:26:18;12.13;;;6.95;;
30892;SDS011;17595;50.884;4.346;2022-11-12T10:28:49;9.85;;;6.30;;
30892;SDS011;17595;50.884;4.346;2022-11-12T10:31:30;6.97;;;5.45;;
30892;SDS011;17595;50.884;4.346;2022-11-12T10:34:17;8.13;;;6.05;;
30892;SDS011;17595;50.884;4.346;2022-11-12T10:36:53;6.63;;;5.50;;
30892;SDS011;17595;50.884;4.346;2022-11-12T10:39:32;6.50;;;5.50;;
30892;SDS011;17595;50.884;4.346;2022-11-12T10:42:14;9.70;;;5.72;;
30892;SDS011;17595;50.884;4.346;2022-11-12T10:44:42;6.32;;;4.78;;
30892;SDS011;17595;50.884;4.346;2022-11-12T10:49:39;8.52;;;5.68;;
30892;SDS011;17595;50.884;4.346;2022-11-12T10:52:16;8.00;;;5.78;;
30892;SDS011;17595;50.884;4.346;2022-11-12T10:54:45;10.13;;;6.00;;
30892;SDS011;17595;50.884;4.346;2022-11-12T10:57:24;7.60;;;5.63;;
30892;SDS011;17595;50.884;4.346;2022-11-12T11:02:48;12.85;;;6.28;;
30892;SDS011;17595;50.884;4.346;2022-11-12T11:05:26;12.23;;;7.07;;
30892;SDS011;17595;50.884;4.346;2022-11-12T11:08:01;10.32;;;7.13;;
30892;SDS011;17595;50.884;4.346;2022-11-12T11:10:28;10.88;;;6.22;;
30892;SDS011;17595;50.884;4.346;2022-11-12T11:16:00;10.70;;;7.13;;
30892;SDS011;17595;50.884;4.346;2022-11-12T11:18:28;10.15;;;6.25;;
30892;SDS011;17595;50.884;4.346;2022-11-12T11:21:07;9.45;;;6.85;;
30892;SDS011;17595;50.884;4.346;2022-11-12T11:23:47;12.70;;;7.13;;
30892;SDS011;17595;50.884;4.346;2022-11-12T11:57:14;9.02;;;6.32;;
30892;SDS011;17595;50.884;4.346;2022-11-12T12:02:48;8.45;;;6.20;;
30892;SDS011;17595;50.884;4.346;2022-11-12T12:08:19;9.30;;;5.95;;
30892;SDS011;17595;50.884;4.346;2022-11-12T12:16:41;10.63;;;6.15;;
30892;SDS011;17595;50.884;4.346;2022-11-12T12:22:17;8.93;;;5.38;;
30892;SDS011;17595;50.884;4.346;2022-11-12T12:24:49;6.90;;;5.25;;
30892;SDS011;17595;50.884;4.346;2022-11-12T12:27:22;8.18;;;5.63;;
30892;SDS011;17595;50.884;4.346;2022-11-12T12:29:59;8.95;;;5.97;;
30892;SDS011;17595;50.884;4.346;2022-11-12T12:32:42;9.07;;;6.07;;
30892;SDS011;17595;50.884;4.346;2022-11-12T12:40:50;8.52;;;6.07;;
30892;SDS011;17595;50.884;4.346;2022-11-12T12:43:36;9.38;;;5.18;;
30892;SDS011;17595;50.884;4.346;2022-11-12T12:46:09;13.18;;;5.78;;
30892;SDS011;17595;50.884;4.346;2022-11-12T12:48:37;8.93;;;5.75;;
30892;SDS011;17595;50.884;4.346;2022-11-12T12:51:06;7.93;;;5.30;;
30892;SDS011;17595;50.884;4.346;2022-11-12T12:53:32;8.23;;;5.10;;
30892;SDS011;17595;50.884;4.346;2022-11-12T12:56:00;6.32;;;5.28;;
30892;SDS011;17595;50.884;4.346;2022-11-12T12:58:28;11.65;;;5.28;;
30892;SDS011;17595;50.884;4.346;2022-11-12T13:01:13;7.03;;;5.13;;
30892;SDS011;17595;50.884;4.346;2022-11-12T13:38:03;14.35;;;6.93;;
30892;SDS011;17595;50.884;4.346;2022-11-12T13:43:25;8.85;;;6.28;;
30892;SDS011;17595;50.884;4.346;2022-11-12T13:56:53;12.13;;;6.30;;
30892;SDS011;17595;50.884;4.346;2022-11-12T13:59:20;11.35;;;6.00;;
30892;SDS011;17595;50.884;4.346;2022-11-12T14:01:48;8.13;;;5.70;;
30892;SDS011;17595;50.884;4.346;2022-11-12T14:04:21;10.68;;;6.00;;
30892;SDS011;17595;50.884;4.346;2022-11-12T14:06:48;8.90;;;6.35;;
30892;SDS011;17595;50.884;4.346;2022-11-12T14:22:51;9.63;;;6.55;;
30892;SDS011;17595;50.884;4.346;2022-11-12T14:25:27;7.75;;;6.13;;
30892;SDS011;17595;50.884;4.346;2022-11-12T14:27:53;11.70;;;6.03;;
30892;SDS011;17595;50.884;4.346;2022-11-12T14:30:26;9.10;;;6.65;;
30892;SDS011;17595;50.884;4.346;2022-11-12T14:33:38;12.23;;;6.93;;
30892;SDS011;17595;50.884;4.346;2022-11-12T14:35:46;8.70;;;6.18;;
30892;SDS011;17595;50.884;4.346;2022-11-12T14:41:02;9.40;;;6.20;;
30892;SDS011;17595;50.884;4.346;2022-11-12T14:46:18;8.15;;;5.80;;
30892;SDS011;17595;50.884;4.346;2022-11-12T14:49:02;9.30;;;6.20;;
30892;SDS011;17595;50.884;4.346;2022-11-12T14:51:31;9.55;;;5.82;;
30892;SDS011;17595;50.884;4.346;2022-11-12T14:54:08;10.80;;;6.28;;
30892;SDS011;17595;50.884;4.346;2022-11-12T14:56:43;9.48;;;5.05;;
30892;SDS011;17595;50.884;4.346;2022-11-12T14:59:12;6.53;;;5.28;;
30892;SDS011;17595;50.884;4.346;2022-11-12T15:01:40;12.73;;;8.20;;
30892;SDS011;17595;50.884;4.346;2022-11-12T15:04:44;11.23;;;7.00;;
30892;SDS011;17595;50.884;4.346;2022-11-12T15:07:23;6.57;;;5.45;;
30892;SDS011;17595;50.884;4.346;2022-11-12T15:09:51;8.80;;;5.32;;
30892;SDS011;17595;50.884;4.346;2022-11-12T15:12:21;9.10;;;6.10;;
30892;SDS011;17595;50.884;4.346;2022-11-12T15:14:50;10.05;;;5.93;;
30892;SDS011;17595;50.884;4.346;2022-11-12T15:17:22;9.95;;;5.57;;
30892;SDS011;17595;50.884;4.346;2022-11-12T15:19:59;7.03;;;5.25;;
30892;SDS011;17595;50.884;4.346;2022-11-12T15:22:26;9.20;;;6.43;;
30892;SDS011;17595;50.884;4.346;2022-11-12T15:24:52;8.00;;;5.18;;
30892;SDS011;17595;50.884;4.346;2022-11-12T15:27:37;11.07;;;5.22;;
30892;SDS011;17595;50.884;4.346;2022-11-12T15:30:15;8.65;;;5.13;;
30892;SDS011;17595;50.884;4.346;2022-11-12T15:32:50;7.32;;;4.25;;
30892;SDS011;17595;50.884;4.346;2022-11-12T15:35:37;9.75;;;4.38;;
30892;SDS011;17595;50.884;4.346;2022-11-12T15:38:12;10.90;;;4.63;;
30892;SDS011;17595;50.884;4.346;2022-11-12T15:40:51;7.45;;;4.28;;
30892;SDS011;17595;50.884;4.346;2022-11-12T15:43:21;8.20;;;4.60;;
30892;SDS011;17595;50.884;4.346;2022-11-12T15:45:52;5.55;;;3.92;;
30892;SDS011;17595;50.884;4.346;2022-11-12T15:48:20;5.13;;;4.10;;
30892;SDS011;17595;50.884;4.346;2022-11-12T15:50:45;7.38;;;3.90;;
30892;SDS011;17595;50.884;4.346;2022-11-12T15:53:12;9.07;;;4.03;;
30892;SDS011;17595;50.884;4.346;2022-11-12T15:55:38;6.35;;;3.75;;
30892;SDS011;17595;50.884;4.346;2022-11-12T15:58:06;5.45;;;3.65;;
30892;SDS011;17595;50.884;4.346;2022-11-12T16:00:36;6.32;;;3.60;;
30892;SDS011;17595;50.884;4.346;2022-11-12T16:05:41;9.00;;;4.28;;
30892;SDS011;17595;50.884;4.346;2022-11-12T16:08:07;9.38;;;4.00;;
30892;SDS011;17595;50.884;4.346;2022-11-12T16:10:33;6.40;;;3.53;;
30892;SDS011;17595;50.884;4.346;2022-11-12T16:13:00;6.05;;;3.70;;
30892;SDS011;17595;50.884;4.346;2022-11-12T16:15:26;7.57;;;3.67;;
30892;SDS011;17595;50.884;4.346;2022-11-12T16:17:53;5.07;;;3.40;;
30892;SDS011;17595;50.884;4.346;2022-11-12T16:20:24;5.97;;;3.47;;
30892;SDS011;17595;50.884;4.346;2022-11-12T16:22:51;5.47;;;3.85;;
30892;SDS011;17595;50.884;4.346;2022-11-12T16:25:17;7.70;;;4.05;;
30892;SDS011;17595;50.884;4.346;2022-11-12T16:27:44;5.82;;;3.55;;
30892;SDS011;17595;50.884;4.346;2022-11-12T16:32:39;9.73;;;3.63;;
30892;SDS011;17595;50.884;4.346;2022-11-12T16:35:05;5.53;;;3.50;;
30892;SDS011;17595;50.884;4.346;2022-11-12T16:37:31;7.57;;;3.47;;
30892;SDS011;17595;50.884;4.346;2022-11-12T16:39:56;7.03;;;3.78;;
30892;SDS011;17595;50.884;4.346;2022-11-12T16:42:22;5.38;;;3.58;;
30892;SDS011;17595;50.884;4.346;2022-11-12T16:44:49;9.48;;;5.05;;
30892;SDS011;17595;50.884;4.346;2022-11-12T16:47:14;8.25;;;4.75;;
30892;SDS011;17595;50.884;4.346;2022-11-12T16:49:40;7.35;;;4.70;;
30892;SDS011;17595;50.884;4.346;2022-11-12T16:52:09;8.70;;;4.43;;
30892;SDS011;17595;50.884;4.346;2022-11-12T16:54:35;7.68;;;4.20;;
30892;SDS011;17595;50.884;4.346;2022-11-12T16:57:00;7.28;;;4.70;;
30892;SDS011;17595;50.884;4.346;2022-11-12T16:59:26;10.43;;;4.28;;
30892;SDS011;17595;50.884;4.346;2022-11-12T17:01:51;5.75;;;4.68;;
30892;SDS011;17595;50.884;4.346;2022-11-12T17:04:17;9.38;;;4.70;;
30892;SDS011;17595;50.884;4.346;2022-11-12T17:06:43;7.50;;;4.28;;
30892;SDS011;17595;50.884;4.346;2022-11-12T17:09:09;17.52;;;7.75;;
30892;SDS011;17595;50.884;4.346;2022-11-12T17:11:36;19.83;;;11.93;;
30892;SDS011;17595;50.884;4.346;2022-11-12T17:14:02;16.95;;;11.00;;
30892;SDS011;17595;50.884;4.346;2022-11-12T17:16:29;8.45;;;5.03;;
30892;SDS011;17595;50.884;4.346;2022-11-12T17:18:56;7.85;;;4.50;;
30892;SDS011;17595;50.884;4.346;2022-11-12T17:21:23;9.05;;;5.60;;
30892;SDS011;17595;50.884;4.346;2022-11-12T17:23:49;7.57;;;5.35;;
30892;SDS011;17595;50.884;4.346;2022-11-12T17:26:16;9.20;;;4.65;;
30892;SDS011;17595;50.884;4.346;2022-11-12T17:28:44;10.93;;;5.82;;
30892;SDS011;17595;50.884;4.346;2022-11-12T17:31:14;9.48;;;4.68;;